Time;durP1;ratioP1;P1;durP2;ratioP2;P2;SDS_P1;SDS_P2;PMS_P1;PMS_P2;Temp;Humidity;BMP_temperature;BMP_pressure;BME280_temperature;BME280_humidity;BME280_pressure;Samples;Min_cycle;Max_cycle;Signal;HPM_P1;HPM_P2
2022/12/31 00:01:12;;;;;;;257.63;118.53;;;5.30;99.90;;;;;;5097498;28;20099;-78
2022/12/31 00:03:38;;;;;;;308.42;129.48;;;5.30;99.90;;;;;;5097535;28;20024;-78
2022/12/31 00:06:13;;;;;;;399.42;158.27;;;5.30;99.90;;;;;;5097361;28;20455;-78
2022/12/31 00:08:40;;;;;;;400.27;157.68;;;5.40;99.90;;;;;;5097402;28;20389;-78
2022/12/31 00:11:06;;;;;;;366.35;143.70;;;5.40;99.90;;;;;;5097242;28;20032;-77
2022/12/31 00:13:32;;;;;;;296.65;123.05;;;5.40;99.90;;;;;;5097238;28;20024;-77
2022/12/31 00:16:13;;;;;;;259.60;112.85;;;5.40;99.90;;;;;;5097315;28;20036;-77
2022/12/31 00:18:43;;;;;;;230.32;104.35;;;5.20;99.90;;;;;;5097087;28;20091;-77
2022/12/31 00:21:09;;;;;;;227.15;102.35;;;5.10;99.90;;;;;;5097187;28;20032;-77
2022/12/31 00:23:36;;;;;;;223.40;101.93;;;5.20;99.90;;;;;;5097221;28;20112;-77
2022/12/31 00:26:10;;;;;;;266.73;114.47;;;5.20;99.90;;;;;;5096974;28;20121;-77
2022/12/31 00:28:37;;;;;;;387.83;151.75;;;5.10;99.90;;;;;;5114671;28;20074;-77
2022/12/31 00:31:22;;;;;;;291.90;125.45;;;5.20;99.90;;;;;;5117336;28;20070;-77
2022/12/31 00:33:48;;;;;;;257.80;111.68;;;5.30;99.90;;;;;;5117550;28;20061;-77
2022/12/31 00:36:26;;;;;;;255.98;114.20;;;5.40;99.90;;;;;;5117381;28;20084;-77
2022/12/31 00:38:54;;;;;;;225.13;102.75;;;5.40;99.90;;;;;;5117423;28;20064;-77
2022/12/31 00:41:22;;;;;;;204.77;98.25;;;5.30;99.90;;;;;;5117182;28;20106;-77
2022/12/31 00:43:48;;;;;;;207.93;99.03;;;5.40;99.90;;;;;;5117306;28;20039;-77
2022/12/31 00:46:15;;;;;;;214.85;97.63;;;5.40;99.90;;;;;;5117150;28;20024;-77
2022/12/31 00:48:42;;;;;;;205.05;98.97;;;5.40;99.90;;;;;;5117190;28;20366;-77
2022/12/31 00:51:11;;;;;;;202.55;91.43;;;5.40;99.90;;;;;;5117153;28;20023;-77
2022/12/31 00:53:37;;;;;;;188.65;93.25;;;5.30;99.90;;;;;;5117036;28;20480;-77
2022/12/31 00:56:15;;;;;;;192.57;92.32;;;5.30;99.90;;;;;;5116927;28;20114;-77
2022/12/31 00:58:41;;;;;;;179.25;88.18;;;5.10;99.90;;;;;;5116974;28;20032;-77
2022/12/31 01:01:13;;;;;;;185.70;87.53;;;5.20;99.90;;;;;;5116491;28;20043;-77
2022/12/31 01:03:39;;;;;;;167.15;84.15;;;5.20;99.90;;;;;;5116820;28;20030;-77
2022/12/31 01:06:06;;;;;;;168.95;82.22;;;5.00;99.90;;;;;;5116743;28;20377;-77
2022/12/31 01:08:33;;;;;;;170.50;82.20;;;5.00;99.90;;;;;;5116937;28;20026;-77
2022/12/31 01:11:18;;;;;;;172.68;80.93;;;4.90;99.90;;;;;;5116723;28;20431;-78
2022/12/31 01:13:50;;;;;;;190.55;89.57;;;4.90;99.90;;;;;;5116444;28;20281;-77
2022/12/31 01:16:18;;;;;;;199.63;94.13;;;4.90;99.90;;;;;;5116517;28;20423;-77
2022/12/31 01:18:44;;;;;;;210.10;97.53;;;5.00;99.90;;;;;;5116401;28;20036;-77
2022/12/31 01:21:12;;;;;;;218.57;100.90;;;5.00;99.90;;;;;;5116566;28;20042;-77
2022/12/31 01:23:38;;;;;;;206.98;98.78;;;5.00;99.90;;;;;;5115786;28;20461;-77
2022/12/31 01:26:07;;;;;;;219.45;105.53;;;5.10;99.90;;;;;;5116325;28;20027;-77
2022/12/31 01:28:33;;;;;;;212.93;99.85;;;5.10;99.90;;;;;;5116331;28;20044;-77
2022/12/31 01:31:04;;;;;;;200.20;97.18;;;5.00;99.90;;;;;;5105090;28;20103;-77
2022/12/31 01:33:29;;;;;;;197.02;96.68;;;5.10;99.90;;;;;;5095872;28;20043;-77
2022/12/31 01:36:10;;;;;;;181.05;89.95;;;5.00;99.90;;;;;;5095891;28;20028;-77
2022/12/31 01:38:36;;;;;;;176.77;85.72;;;5.00;99.90;;;;;;5095796;28;20028;-77
2022/12/31 01:41:03;;;;;;;169.70;83.03;;;5.00;99.90;;;;;;5095560;28;20109;-77
2022/12/31 01:43:54;;;;;;;155.85;78.32;;;4.70;99.90;;;;;;5095725;28;20058;-77
2022/12/31 01:46:35;;;;;;;156.98;78.45;;;4.50;99.90;;;;;;5050039;28;20034;-77
2022/12/31 01:49:31;;;;;;;159.75;79.75;;;4.50;99.90;;;;;;5095417;28;20028;-77
2022/12/31 01:52:07;;;;;;;175.23;86.55;;;4.50;99.90;;;;;;5095671;28;20028;-77
2022/12/31 01:54:39;;;;;;;160.88;81.82;;;4.60;99.90;;;;;;5095451;28;20040;-77
2022/12/31 01:57:08;;;;;;;181.75;88.25;;;4.60;99.90;;;;;;5095475;28;20028;-77
2022/12/31 01:59:34;;;;;;;166.15;83.15;;;4.70;99.90;;;;;;5095239;28;20028;-77
2022/12/31 02:02:01;;;;;;;166.45;82.50;;;4.70;99.90;;;;;;5095411;28;20508;-77
2022/12/31 02:04:27;;;;;;;201.68;95.38;;;4.70;99.90;;;;;;5095328;28;20027;-77
2022/12/31 02:06:58;;;;;;;218.15;103.10;;;4.80;99.90;;;;;;5095364;28;20104;-77
2022/12/31 02:09:24;;;;;;;217.23;101.22;;;5.00;99.90;;;;;;5095253;28;20032;-77
2022/12/31 02:11:50;;;;;;;215.05;103.90;;;5.00;99.90;;;;;;5095339;28;20447;-77
2022/12/31 02:14:29;;;;;;;206.45;96.88;;;5.10;99.90;;;;;;5095135;28;20032;-77
2022/12/31 02:17:07;;;;;;;191.98;94.45;;;5.20;99.90;;;;;;5095023;28;20027;-77
2022/12/31 02:20:10;;;;;;;182.02;91.80;;;5.20;99.90;;;;;;5095055;28;20387;-77
2022/12/31 02:22:57;;;;;;;167.88;82.20;;;5.00;99.90;;;;;;5095014;28;20028;-77
2022/12/31 02:26:11;;;;;;;163.35;82.15;;;4.80;99.90;;;;;;5094954;28;20020;-77
2022/12/31 02:28:59;;;;;;;167.90;78.85;;;4.80;99.90;;;;;;5090746;28;20043;-77
2022/12/31 02:31:51;;;;;;;168.23;76.70;;;4.80;99.90;;;;;;5129796;27;20076;-77
2022/12/31 02:34:42;;;;;;;159.40;76.60;;;5.00;99.90;;;;;;5134997;27;20039;-77
2022/12/31 02:37:12;;;;;;;170.70;82.50;;;5.10;99.90;;;;;;5135741;27;20392;-77
2022/12/31 02:39:40;;;;;;;182.17;85.77;;;5.20;99.90;;;;;;5135590;27;20038;-77
2022/12/31 02:42:06;;;;;;;171.43;80.55;;;5.20;99.90;;;;;;5135642;27;20038;-77
2022/12/31 02:44:33;;;;;;;171.95;82.93;;;5.40;99.90;;;;;;5135637;27;20048;-77
2022/12/31 02:47:08;;;;;;;181.05;85.20;;;5.30;99.90;;;;;;5135585;27;20068;-77
2022/12/31 02:49:36;;;;;;;156.18;75.13;;;5.30;99.90;;;;;;5135488;27;20038;-77
2022/12/31 02:52:16;;;;;;;163.48;79.80;;;5.20;99.90;;;;;;5135623;27;20041;-77
2022/12/31 02:55:19;;;;;;;158.25;78.05;;;5.10;99.90;;;;;;5135332;27;20039;-77
2022/12/31 02:57:56;;;;;;;151.60;75.10;;;5.20;99.90;;;;;;5135510;28;20027;-77
2022/12/31 03:03:09;;;;;;;153.07;73.85;;;5.50;99.90;;;;;;5135166;28;20150;-77
2022/12/31 03:05:42;;;;;;;148.20;73.05;;;5.60;99.90;;;;;;5135532;28;20071;-77
2022/12/31 03:08:08;;;;;;;167.90;77.07;;;5.70;99.90;;;;;;5135455;28;20023;-77
2022/12/31 03:10:35;;;;;;;170.43;77.95;;;5.70;99.90;;;;;;5135480;28;20438;-77
2022/12/31 03:13:01;;;;;;;177.05;83.20;;;5.80;99.90;;;;;;5135263;28;20397;-77
2022/12/31 03:15:33;;;;;;;180.48;82.53;;;5.80;99.90;;;;;;5135315;28;20035;-77
2022/12/31 03:18:08;;;;;;;171.30;80.93;;;5.80;99.90;;;;;;5135264;28;20031;-77
2022/12/31 03:23:35;;;;;;;138.77;64.57;;;5.90;99.90;;;;;;5135241;28;20469;-77
2022/12/31 03:26:02;;;;;;;135.27;67.25;;;5.90;99.90;;;;;;5135177;28;20548;-77
2022/12/31 03:28:29;;;;;;;145.05;67.93;;;5.90;99.90;;;;;;5135030;28;20124;-77
2022/12/31 03:30:58;;;;;;;144.20;68.20;;;6.00;99.90;;;;;;5124584;28;20027;-77
2022/12/31 03:33:25;;;;;;;123.55;61.50;;;6.00;99.90;;;;;;5114628;28;20368;-77
2022/12/31 03:35:52;;;;;;;118.10;57.47;;;6.10;99.90;;;;;;5114506;28;20081;-77
2022/12/31 03:38:18;;;;;;;117.95;55.17;;;6.10;99.90;;;;;;5114359;28;20023;-77
2022/12/31 03:40:48;;;;;;;108.45;55.20;;;6.20;99.90;;;;;;5114453;28;20393;-77
2022/12/31 03:43:14;;;;;;;112.38;55.15;;;6.20;99.90;;;;;;5114525;28;20400;-77
2022/12/31 03:45:40;;;;;;;102.07;53.47;;;6.30;99.90;;;;;;5116169;28;20051;-77
2022/12/31 03:48:08;;;;;;;105.25;51.10;;;6.20;99.90;;;;;;5118188;28;20027;-77
2022/12/31 03:50:34;;;;;;;108.93;54.10;;;6.10;99.90;;;;;;5118223;28;20397;-77
2022/12/31 03:53:00;;;;;;;104.57;51.55;;;6.10;99.90;;;;;;5118114;28;20621;-77
2022/12/31 03:55:26;;;;;;;98.18;50.25;;;6.20;99.90;;;;;;5118198;28;20126;-77
2022/12/31 03:57:52;;;;;;;101.97;49.25;;;6.30;99.90;;;;;;5118265;28;20034;-77
2022/12/31 04:00:20;;;;;;;108.55;49.40;;;6.30;99.90;;;;;;5117983;28;20110;-77
2022/12/31 04:02:47;;;;;;;102.15;50.30;;;6.40;99.90;;;;;;5118062;28;20521;-77
2022/12/31 04:05:15;;;;;;;101.53;49.35;;;6.40;99.90;;;;;;5117937;28;20027;-77
2022/12/31 04:07:41;;;;;;;94.55;47.85;;;6.50;99.90;;;;;;5117905;28;20016;-77
2022/12/31 04:10:09;;;;;;;97.70;48.78;;;6.50;99.90;;;;;;5117801;28;20458;-77
2022/12/31 04:12:36;;;;;;;108.05;53.03;;;6.50;99.90;;;;;;5117885;28;20023;-77
2022/12/31 04:15:02;;;;;;;118.05;57.72;;;6.40;99.90;;;;;;5117862;28;20508;-77
2022/12/31 04:17:28;;;;;;;110.38;54.80;;;6.30;99.90;;;;;;5117728;28;20034;-77
2022/12/31 04:19:54;;;;;;;107.53;52.65;;;6.30;99.90;;;;;;5099443;28;20027;-77
2022/12/31 04:22:20;;;;;;;100.85;52.83;;;6.30;99.90;;;;;;5117747;28;20664;-77
2022/12/31 04:24:46;;;;;;;99.57;50.25;;;6.30;99.90;;;;;;5117745;28;20522;-77
2022/12/31 04:27:12;;;;;;;100.90;52.03;;;6.30;99.90;;;;;;5111518;28;20114;-77
2022/12/31 04:29:38;;;;;;;102.78;50.10;;;6.30;99.90;;;;;;5097123;28;20039;-76
2022/12/31 04:32:05;;;;;;;104.60;50.35;;;6.20;99.90;;;;;;5097006;28;20470;-77
2022/12/31 04:34:32;;;;;;;103.10;51.20;;;6.20;99.90;;;;;;5096942;28;20032;-77
2022/12/31 04:36:58;;;;;;;93.13;48.25;;;6.40;99.90;;;;;;5096916;28;20439;-76
2022/12/31 04:39:25;;;;;;;102.78;51.38;;;6.40;99.90;;;;;;5096876;28;20036;-76
2022/12/31 04:41:51;;;;;;;100.20;50.08;;;6.50;99.90;;;;;;5097001;28;20386;-76
2022/12/31 04:44:17;;;;;;;99.15;51.00;;;6.50;99.90;;;;;;5096884;28;20486;-76
2022/12/31 04:46:43;;;;;;;108.22;53.30;;;6.50;99.90;;;;;;5096946;28;20074;-76
2022/12/31 04:49:10;;;;;;;115.82;55.33;;;6.50;99.90;;;;;;5096660;28;20115;-76
2022/12/31 04:51:36;;;;;;;104.03;53.22;;;6.40;99.90;;;;;;5116837;28;20030;-76
2022/12/31 04:54:03;;;;;;;99.13;51.13;;;6.50;99.90;;;;;;5117057;28;20027;-77
2022/12/31 04:56:29;;;;;;;111.57;54.90;;;6.50;99.90;;;;;;5116471;28;20027;-76
2022/12/31 04:58:55;;;;;;;103.65;56.28;;;6.50;99.90;;;;;;5116817;28;20045;-76
2022/12/31 05:01:21;;;;;;;118.03;59.35;;;6.50;99.90;;;;;;5116890;28;20107;-76
2022/12/31 05:03:48;;;;;;;104.80;54.72;;;6.50;99.90;;;;;;5116807;28;20020;-77
2022/12/31 05:06:20;;;;;;;104.13;54.85;;;6.40;99.90;;;;;;5116830;28;20028;-77
2022/12/31 05:08:46;;;;;;;89.38;48.00;;;6.40;99.90;;;;;;5116733;28;20123;-77
2022/12/31 05:11:12;;;;;;;101.15;50.67;;;6.50;99.90;;;;;;5116740;28;20032;-77
2022/12/31 05:13:39;;;;;;;95.00;49.03;;;6.40;99.90;;;;;;5116805;28;20028;-77
2022/12/31 05:16:06;;;;;;;101.38;51.13;;;6.40;99.90;;;;;;5116696;28;20032;-77
2022/12/31 05:18:33;;;;;;;109.35;57.47;;;6.40;99.90;;;;;;5116418;28;20481;-76
2022/12/31 05:20:59;;;;;;;140.65;70.65;;;6.40;99.90;;;;;;5116449;28;20031;-77
2022/12/31 05:23:25;;;;;;;144.57;67.15;;;6.60;99.90;;;;;;5116394;28;20023;-76
2022/12/31 05:25:52;;;;;;;166.13;72.80;;;6.60;99.90;;;;;;5116506;28;20045;-77
2022/12/31 05:28:18;;;;;;;169.80;73.68;;;6.60;99.90;;;;;;5116162;28;20044;-77
2022/12/31 05:30:46;;;;;;;160.23;70.07;;;6.60;99.90;;;;;;5116150;28;20452;-77
2022/12/31 05:33:12;;;;;;;164.30;69.93;;;6.60;99.90;;;;;;5116264;28;20031;-77
2022/12/31 05:35:39;;;;;;;156.65;67.15;;;6.60;99.90;;;;;;5116353;28;20028;-76
2022/12/31 05:38:05;;;;;;;107.88;54.25;;;6.60;99.90;;;;;;5116303;28;20124;-77
2022/12/31 05:40:30;;;;;;;101.25;52.85;;;6.70;99.90;;;;;;5116151;28;20048;-77
2022/12/31 05:42:56;;;;;;;103.15;52.88;;;6.60;99.90;;;;;;5116160;28;20030;-78
2022/12/31 05:45:22;;;;;;;112.97;55.75;;;6.60;99.90;;;;;;5116054;28;20076;-77
2022/12/31 05:47:48;;;;;;;100.15;52.75;;;6.70;99.90;;;;;;5116105;28;20016;-77
2022/12/31 05:50:16;;;;;;;97.60;53.15;;;6.60;99.90;;;;;;5116014;28;20035;-77
2022/12/31 05:52:43;;;;;;;106.65;54.90;;;6.60;99.90;;;;;;5116049;28;20039;-77
2022/12/31 05:55:10;;;;;;;103.93;55.58;;;6.40;99.90;;;;;;5115807;28;20100;-77
2022/12/31 05:57:37;;;;;;;101.90;56.50;;;6.30;99.90;;;;;;5115903;28;20084;-77
2022/12/31 06:00:04;;;;;;;100.72;54.42;;;6.30;99.90;;;;;;5115534;28;20042;-77
2022/12/31 06:02:39;;;;;;;117.07;57.40;;;6.20;99.90;;;;;;5115727;28;20404;-77
2022/12/31 06:05:05;;;;;;;106.57;55.58;;;6.10;99.90;;;;;;5115679;28;20496;-77
2022/12/31 06:07:31;;;;;;;120.97;59.20;;;6.00;99.90;;;;;;5115691;28;20016;-77
2022/12/31 06:09:57;;;;;;;98.10;52.28;;;6.00;99.90;;;;;;5115530;28;20038;-77
2022/12/31 06:12:23;;;;;;;103.07;52.03;;;5.80;99.90;;;;;;5115450;28;20408;-77
2022/12/31 06:14:49;;;;;;;106.65;54.38;;;5.80;99.90;;;;;;5115584;28;20130;-77
2022/12/31 06:17:15;;;;;;;101.32;53.42;;;5.80;99.90;;;;;;5115326;28;20042;-76
2022/12/31 06:19:41;;;;;;;106.65;53.00;;;5.60;99.90;;;;;;5115336;28;20051;-77
2022/12/31 06:22:07;;;;;;;94.35;51.65;;;5.60;99.90;;;;;;5115354;28;20058;-77
2022/12/31 06:24:33;;;;;;;103.88;51.80;;;5.50;99.90;;;;;;5115358;28;20484;-77
2022/12/31 06:26:59;;;;;;;91.80;48.85;;;5.40;99.90;;;;;;5115056;28;20043;-77
2022/12/31 06:29:25;;;;;;;95.38;49.08;;;5.30;99.90;;;;;;5115282;28;20469;-77
2022/12/31 06:31:50;;;;;;;92.47;48.85;;;5.20;99.90;;;;;;5096827;28;20035;-77
2022/12/31 06:34:17;;;;;;;97.38;48.90;;;5.20;99.90;;;;;;5094904;28;20032;-76
2022/12/31 06:36:43;;;;;;;96.93;46.15;;;5.20;99.90;;;;;;5094812;28;20062;-77
2022/12/31 06:39:09;;;;;;;97.20;47.35;;;5.10;99.90;;;;;;5094953;28;20028;-77
2022/12/31 06:41:35;;;;;;;72.13;41.50;;;5.10;99.90;;;;;;5094763;28;20119;-76
2022/12/31 06:44:01;;;;;;;76.70;42.85;;;5.10;99.90;;;;;;5094763;28;20028;-77
2022/12/31 06:46:26;;;;;;;85.57;45.10;;;5.00;99.90;;;;;;5094586;28;20347;-76
2022/12/31 06:48:52;;;;;;;88.07;46.65;;;5.00;99.90;;;;;;5094585;28;20024;-76
2022/12/31 06:51:20;;;;;;;90.13;45.15;;;5.00;99.90;;;;;;5094602;28;20370;-76
2022/12/31 06:53:47;;;;;;;76.55;42.92;;;4.90;99.90;;;;;;5094560;28;20123;-76
2022/12/31 06:56:16;;;;;;;104.20;51.55;;;4.80;99.90;;;;;;5094462;28;20032;-77
2022/12/31 06:58:43;;;;;;;93.47;46.63;;;4.80;99.90;;;;;;5094614;28;20039;-76
2022/12/31 07:01:21;;;;;;;82.82;44.90;;;4.80;99.90;;;;;;5094469;28;20035;-76
2022/12/31 07:03:50;;;;;;;84.20;47.20;;;4.80;99.90;;;;;;5094489;28;20028;-76
2022/12/31 07:06:22;;;;;;;128.65;68.60;;;4.80;99.90;;;;;;5094529;28;20027;-77
2022/12/31 07:08:59;;;;;;;111.30;55.53;;;4.90;99.90;;;;;;5094580;28;20020;-76
2022/12/31 07:11:31;;;;;;;95.38;49.85;;;5.00;99.90;;;;;;5094489;28;20461;-76
2022/12/31 07:14:11;;;;;;;92.30;49.95;;;5.00;99.90;;;;;;5094593;28;20101;-76
2022/12/31 07:16:52;;;;;;;100.18;46.90;;;5.10;99.90;;;;;;5094279;28;20032;-76
2022/12/31 07:19:39;;;;;;;;;;;5.20;99.90;;;;;;5094668;28;20482;-76
2022/12/31 07:22:12;;;;;;;113.93;53.00;;;5.50;99.90;;;;;;5098312;28;19912;-76
2022/12/31 07:24:39;;;;;;;137.85;65.22;;;5.80;99.90;;;;;;5098246;28;20107;-76
2022/12/31 07:27:38;;;;;;;142.95;70.85;;;6.10;99.90;;;;;;5094496;28;20130;-76
2022/12/31 07:30:12;;;;;;;139.00;70.10;;;6.60;99.90;;;;;;5114572;28;20046;-75
2022/12/31 07:33:03;;;;;;;124.18;64.80;;;7.80;99.90;;;;;;5118732;28;20028;-75
2022/12/31 07:35:48;;;;;;;129.50;65.72;;;8.90;99.90;;;;;;5118570;28;20038;-74
2022/12/31 07:38:45;;;;;;;132.85;67.75;;;9.80;99.90;;;;;;5118568;28;20036;-74
2022/12/31 07:41:40;;;;;;;140.48;70.38;;;10.40;99.90;;;;;;5118582;28;20027;-74
2022/12/31 07:44:35;;;;;;;202.85;104.65;;;11.10;99.90;;;;;;5118321;28;20480;-74
2022/12/31 07:47:04;;;;;;;208.05;110.35;;;12.70;99.90;;;;;;5117385;28;20035;-74
2022/12/31 07:49:32;;;;;;;228.70;112.00;;;12.70;97.90;;;;;;5118278;28;20023;-74
2022/12/31 07:51:58;;;;;;;193.95;96.45;;;13.30;95.50;;;;;;5118245;28;20091;-74
2022/12/31 07:54:24;;;;;;;196.20;99.60;;;13.80;91.00;;;;;;5118186;28;20047;-74
2022/12/31 07:56:50;;;;;;;204.05;108.85;;;13.90;91.70;;;;;;5118157;28;20430;-74
2022/12/31 07:59:56;;;;;;;219.68;120.13;;;14.40;86.00;;;;;;5118277;28;20047;-74
2022/12/31 08:03:00;;;;;;;262.45;134.20;;;15.00;84.60;;;;;;5118143;28;20384;-74
2022/12/31 08:05:45;;;;;;;241.20;125.72;;;14.00;90.20;;;;;;5117960;28;20107;-74
2022/12/31 08:08:42;;;;;;;173.18;97.45;;;14.10;88.20;;;;;;5118063;28;20060;-74
2022/12/31 08:11:12;;;;;;;175.93;94.75;;;14.30;83.70;;;;;;5063296;28;20044;-74
2022/12/31 08:13:40;;;;;;;184.88;102.85;;;14.40;85.20;;;;;;5117866;28;20483;-74
2022/12/31 08:16:10;;;;;;;200.10;109.00;;;15.40;81.00;;;;;;5117774;28;20472;-73
2022/12/31 08:18:36;;;;;;;222.65;118.95;;;15.80;80.30;;;;;;5117599;28;20081;-73
2022/12/31 08:21:17;;;;;;;208.38;111.63;;;16.20;77.10;;;;;;5117754;28;20047;-73
2022/12/31 08:23:43;;;;;;;;;;;16.80;74.30;;;;;;5118042;28;20366;-73
2022/12/31 08:26:29;;;;;;;178.27;98.03;;;17.90;68.60;;;;;;5117698;28;19954;-73
2022/12/31 08:29:17;;;;;;;186.00;101.88;;;18.40;65.70;;;;;;5137997;27;20045;-74
2022/12/31 08:31:57;;;;;;;184.13;101.07;;;17.40;66.10;;;;;;5119368;27;20039;-75
2022/12/31 08:34:38;;;;;;;174.98;98.15;;;16.30;69.40;;;;;;5117408;28;20081;-75
2022/12/31 08:41:05;;;;;;;174.07;95.15;;;15.10;76.10;;;;;;5101708;28;20042;-76
2022/12/31 08:43:40;;;;;;;173.20;95.53;;;15.10;79.60;;;;;;5098907;28;20538;-76
2022/12/31 08:46:21;;;;;;;188.82;100.40;;;14.90;77.60;;;;;;5117087;28;20080;-76
2022/12/31 08:49:10;;;;;;;188.93;94.90;;;13.10;89.40;;;;;;5116885;28;20028;-76
2022/12/31 08:51:45;;;;;;;189.98;97.28;;;12.80;93.70;;;;;;5117046;28;20067;-76
2022/12/31 08:54:12;;;;;;;167.35;90.38;;;12.40;96.60;;;;;;5117004;28;20115;-76
2022/12/31 08:57:08;;;;;;;163.13;91.38;;;12.30;99.60;;;;;;5116946;28;20051;-76
2022/12/31 08:59:55;;;;;;;155.57;88.85;;;12.20;99.90;;;;;;5116800;28;20058;-76
2022/12/31 09:02:45;;;;;;;150.48;86.57;;;12.90;99.90;;;;;;5116812;28;20034;-75
2022/12/31 09:05:24;;;;;;;180.00;103.38;;;14.30;96.70;;;;;;5116863;28;20027;-74
2022/12/31 09:08:27;;;;;;;170.52;95.45;;;15.60;86.70;;;;;;5116816;28;20023;-74
2022/12/31 09:10:59;;;;;;;175.32;100.18;;;16.60;79.80;;;;;;5116683;28;20104;-74
2022/12/31 09:13:37;;;;;;;171.52;98.75;;;17.20;76.90;;;;;;5116681;28;20024;-73
2022/12/31 09:16:19;;;;;;;181.80;104.07;;;17.90;73.20;;;;;;5116520;28;20358;-73
2022/12/31 09:18:45;;;;;;;195.32;110.55;;;18.80;67.80;;;;;;5116484;28;20024;-74
2022/12/31 09:21:13;;;;;;;198.93;116.53;;;18.50;65.10;;;;;;5115859;28;20061;-74
2022/12/31 09:23:40;;;;;;;195.02;113.07;;;18.40;63.30;;;;;;5116380;28;20028;-74
2022/12/31 09:26:27;;;;;;;203.00;113.78;;;17.90;66.00;;;;;;5116397;28;20051;-74
2022/12/31 09:28:59;;;;;;;223.57;122.83;;;18.50;64.00;;;;;;5116463;28;20032;-74
2022/12/31 09:31:50;;;;;;;243.68;135.65;;;19.20;62.90;;;;;;5131020;27;20023;-74
2022/12/31 09:34:22;;;;;;;256.25;138.98;;;19.80;58.30;;;;;;5136828;27;20480;-74
2022/12/31 09:36:55;;;;;;;238.40;130.95;;;18.20;60.60;;;;;;5136565;27;20476;-74
2022/12/31 09:39:32;;;;;;;232.23;133.27;;;19.40;60.80;;;;;;5136765;27;20051;-74
2022/12/31 09:42:27;;;;;;;231.27;135.32;;;20.20;57.20;;;;;;5136732;27;20128;-74
2022/12/31 09:45:13;;;;;;;227.68;124.82;;;20.40;57.20;;;;;;5136248;27;20076;-74
2022/12/31 09:48:06;;;;;;;226.30;130.32;;;20.20;57.30;;;;;;5136521;27;20026;-74
2022/12/31 09:51:15;;;;;;;224.32;128.68;;;19.80;56.00;;;;;;5097274;27;20126;-74
2022/12/31 09:54:02;;;;;;;181.75;102.95;;;20.00;56.90;;;;;;5136358;27;20102;-74
2022/12/31 09:56:35;;;;;;;192.30;109.32;;;20.90;53.80;;;;;;5136353;27;20106;-74
2022/12/31 09:59:19;;;;;;;193.55;110.32;;;20.40;54.80;;;;;;5117895;27;20492;-74
2022/12/31 10:01:55;;;;;;;188.13;109.60;;;21.00;54.40;;;;;;5136168;27;20057;-74
2022/12/31 10:04:59;;;;;;;192.43;113.13;;;21.30;53.00;;;;;;5136170;27;20056;-74
2022/12/31 10:07:43;;;;;;;180.95;106.72;;;21.30;53.10;;;;;;5136358;27;20495;-74
2022/12/31 10:10:21;;;;;;;186.77;106.70;;;22.10;50.80;;;;;;5136026;27;20442;-74
2022/12/31 10:13:21;;;;;;;148.00;85.65;;;22.40;50.90;;;;;;5136006;27;20058;-74
2022/12/31 10:16:12;;;;;;;155.32;89.00;;;22.20;49.80;;;;;;5126875;27;20043;-74
2022/12/31 10:18:44;;;;;;;134.85;79.35;;;22.60;49.80;;;;;;5135878;27;20019;-75
2022/12/31 10:21:33;;;;;;;132.85;74.95;;;23.10;46.50;;;;;;5135902;27;20057;-74
2022/12/31 10:24:45;;;;;;;133.05;77.93;;;23.10;47.10;;;;;;5135798;27;20124;-74
2022/12/31 10:27:33;;;;;;;130.38;77.22;;;23.60;46.50;;;;;;5135741;27;20134;-74
2022/12/31 10:30:21;;;;;;;115.78;67.50;;;23.20;46.30;;;;;;5133189;27;20083;-75
2022/12/31 10:33:14;;;;;;;86.72;47.75;;;24.10;43.80;;;;;;5115271;28;20106;-74
2022/12/31 10:35:58;;;;;;;70.85;41.55;;;24.50;42.50;;;;;;5115212;28;20082;-75
2022/12/31 10:38:45;;;;;;;77.57;46.25;;;24.60;41.20;;;;;;5115265;28;20028;-75
2022/12/31 10:41:42;;;;;;;66.18;41.20;;;23.80;43.50;;;;;;5115032;28;20451;-75
2022/12/31 10:44:26;;;;;;;59.92;35.85;;;23.70;42.10;;;;;;5115013;28;20534;-75
2022/12/31 10:47:32;;;;;;;54.20;32.88;;;23.40;41.30;;;;;;5115032;28;20115;-74
2022/12/31 10:50:21;;;;;;;46.55;28.45;;;23.50;43.60;;;;;;5115131;28;20104;-74
2022/12/31 10:53:06;;;;;;;47.40;23.60;;;24.00;41.60;;;;;;5115026;28;20473;-74
2022/12/31 10:55:54;;;;;;;43.13;25.58;;;24.40;40.90;;;;;;5114195;28;20043;-74
2022/12/31 10:58:43;;;;;;;55.10;30.20;;;24.40;40.80;;;;;;5114885;28;20051;-74
2022/12/31 11:01:23;;;;;;;48.13;29.90;;;24.60;41.10;;;;;;5114792;28;20101;-74
2022/12/31 11:04:07;;;;;;;58.83;34.17;;;24.50;41.30;;;;;;5114908;28;20450;-75
2022/12/31 11:07:05;;;;;;;60.10;33.50;;;24.40;40.80;;;;;;5114964;28;20083;-75
2022/12/31 11:09:51;;;;;;;64.95;34.40;;;25.00;40.40;;;;;;5114806;28;20426;-75
2022/12/31 11:12:35;;;;;;;50.35;30.88;;;24.80;40.30;;;;;;5114728;28;20508;-75
2022/12/31 11:15:22;;;;;;;54.95;31.42;;;25.70;38.80;;;;;;5114619;28;20473;-75
2022/12/31 11:18:06;;;;;;;54.47;32.40;;;25.90;38.30;;;;;;5114648;28;20028;-75
2022/12/31 11:21:09;;;;;;;46.72;29.02;;;25.80;38.80;;;;;;5114780;28;20032;-75
2022/12/31 11:24:09;;;;;;;63.53;35.80;;;25.90;37.40;;;;;;5114590;28;20089;-75
2022/12/31 11:27:01;;;;;;;79.55;34.13;;;25.60;38.40;;;;;;5114617;28;20031;-74
2022/12/31 11:29:52;;;;;;;49.00;26.65;;;25.00;39.80;;;;;;5114854;28;20030;-75
2022/12/31 11:33:03;;;;;;;36.88;20.10;;;25.40;39.20;;;;;;5076184;28;20047;-75
2022/12/31 11:35:53;;;;;;;34.45;19.13;;;25.70;37.00;;;;;;5093922;28;20038;-75
2022/12/31 11:38:30;;;;;;;;;;;26.00;36.30;;;;;;5094626;28;20081;-75
2022/12/31 11:41:04;;;;;;;34.60;18.27;;;25.60;35.10;;;;;;5094077;28;19912;-75
2022/12/31 11:43:36;;;;;;;29.40;16.20;;;25.70;36.10;;;;;;5093998;28;20020;-75
2022/12/31 11:46:20;;;;;;;27.58;16.35;;;25.70;36.00;;;;;;5094165;28;20121;-75
2022/12/31 11:49:05;;;;;;;26.48;14.27;;;26.40;35.20;;;;;;5093901;28;20468;-75
2022/12/31 11:51:42;;;;;;;26.05;14.68;;;26.60;34.30;;;;;;5094117;28;20039;-75
2022/12/31 11:54:31;;;;;;;29.08;14.02;;;26.50;33.80;;;;;;5093929;28;20020;-75
2022/12/31 11:57:21;;;;;;;27.77;13.93;;;27.20;33.60;;;;;;5094040;28;20031;-75
2022/12/31 12:00:00;;;;;;;31.45;14.40;;;26.10;34.20;;;;;;5093860;28;20060;-75
2022/12/31 12:02:43;;;;;;;21.45;11.80;;;26.40;32.70;;;;;;5093860;28;20062;-75
2022/12/31 12:05:15;;;;;;;26.15;11.73;;;25.60;34.60;;;;;;5093866;28;20084;-75
2022/12/31 12:07:41;;;;;;;25.58;10.95;;;25.70;34.80;;;;;;5097012;28;20024;-75
2022/12/31 12:10:30;;;;;;;23.90;12.25;;;26.70;33.60;;;;;;5097509;28;20034;-75
2022/12/31 12:12:57;;;;;;;27.20;12.05;;;26.00;33.20;;;;;;5090959;28;20481;-75
2022/12/31 12:15:31;;;;;;;21.88;12.20;;;26.00;33.60;;;;;;5097321;28;20043;-75
2022/12/31 12:18:08;;;;;;;27.25;13.88;;;26.30;33.60;;;;;;5097285;28;20093;-76
2022/12/31 12:20:37;;;;;;;36.25;13.15;;;24.30;34.70;;;;;;5097083;28;20465;-75
2022/12/31 12:23:14;;;;;;;25.35;13.95;;;25.20;35.50;;;;;;5079255;28;20058;-76
2022/12/31 12:25:42;;;;;;;24.85;13.25;;;25.10;35.30;;;;;;5097303;28;20083;-75
2022/12/31 12:28:18;;;;;;;24.02;12.85;;;26.00;34.00;;;;;;5097122;28;20044;-75
2022/12/31 12:30:52;;;;;;;27.05;12.98;;;25.90;33.80;;;;;;5105989;28;20461;-76
2022/12/31 12:33:19;;;;;;;27.70;11.77;;;26.20;32.90;;;;;;5117480;28;20465;-76
2022/12/31 12:35:47;;;;;;;24.40;12.75;;;25.80;32.90;;;;;;5117282;28;20012;-76
2022/12/31 12:38:17;;;;;;;21.90;11.23;;;25.00;34.50;;;;;;5099510;28;20028;-76
2022/12/31 12:41:03;;;;;;;19.08;10.68;;;25.70;33.90;;;;;;5117203;28;20023;-76
2022/12/31 12:43:32;;;;;;;20.00;10.40;;;25.20;34.30;;;;;;5117220;28;20023;-76
2022/12/31 12:46:01;;;;;;;16.60;8.98;;;25.20;35.10;;;;;;5117307;28;20035;-76
2022/12/31 12:48:37;;;;;;;20.17;9.57;;;25.20;35.20;;;;;;5117139;28;20118;-76
2022/12/31 12:51:46;;;;;;;17.88;9.27;;;24.80;34.10;;;;;;5117211;28;20058;-76
2022/12/31 12:54:20;;;;;;;;;;;25.20;34.60;;;;;;5117624;28;20043;-76
2022/12/31 12:57:24;;;;;;;19.02;8.60;;;25.60;33.60;;;;;;5116952;28;19912;-76
2022/12/31 13:00:19;;;;;;;15.65;8.25;;;25.40;34.50;;;;;;5116971;28;20035;-76
2022/12/31 13:03:18;;;;;;;19.52;9.07;;;25.20;33.50;;;;;;5117100;28;20207;-76
2022/12/31 13:05:50;;;;;;;15.98;8.75;;;24.30;35.10;;;;;;5041601;28;20116;-76
2022/12/31 13:08:47;;;;;;;16.45;8.68;;;23.70;37.50;;;;;;5116640;28;20028;-76
2022/12/31 13:11:52;;;;;;;22.02;9.40;;;23.50;39.30;;;;;;5116684;28;20110;-76
2022/12/31 13:14:27;;;;;;;20.20;10.07;;;23.60;37.70;;;;;;5116716;28;20036;-76
2022/12/31 13:17:17;;;;;;;17.38;9.02;;;23.30;38.90;;;;;;5116680;28;20518;-76